sensor_id;sensor_type;location;lat;lon;timestamp;P1;durP1;ratioP1;P2;durP2;ratioP2
15488;SDS011;7846;48.830;9.116;2023-02-03T00:00:31;0.83;;;0.83;;
15488;SDS011;7846;48.830;9.116;2023-02-03T00:02:57;1.83;;;0.80;;
15488;SDS011;7846;48.830;9.116;2023-02-03T00:05:22;1.57;;;0.90;;
15488;SDS011;7846;48.830;9.116;2023-02-03T00:07:49;2.40;;;0.90;;
15488;SDS011;7846;48.830;9.116;2023-02-03T00:10:15;2.10;;;0.83;;
15488;SDS011;7846;48.830;9.116;2023-02-03T00:12:45;2.23;;;0.90;;
15488;SDS011;7846;48.830;9.116;2023-02-03T00:15:14;1.33;;;0.90;;
15488;SDS011;7846;48.830;9.116;2023-02-03T00:17:40;1.43;;;0.80;;
15488;SDS011;7846;48.830;9.116;2023-02-03T00:20:06;0.70;;;0.70;;
15488;SDS011;7846;48.830;9.116;2023-02-03T00:22:31;1.27;;;0.70;;
15488;SDS011;7846;48.830;9.116;2023-02-03T00:24:58;0.80;;;0.73;;
15488;SDS011;7846;48.830;9.116;2023-02-03T00:27:24;0.70;;;0.70;;
15488;SDS011;7846;48.830;9.116;2023-02-03T00:29:50;1.47;;;0.87;;
15488;SDS011;7846;48.830;9.116;2023-02-03T00:32:15;0.90;;;0.63;;
15488;SDS011;7846;48.830;9.116;2023-02-03T00:34:40;1.20;;;0.80;;
15488;SDS011;7846;48.830;9.116;2023-02-03T00:37:06;0.80;;;0.40;;
15488;SDS011;7846;48.830;9.116;2023-02-03T00:39:31;0.50;;;0.50;;
15488;SDS011;7846;48.830;9.116;2023-02-03T00:41:56;0.70;;;0.60;;
15488;SDS011;7846;48.830;9.116;2023-02-03T00:44:23;0.67;;;0.67;;
15488;SDS011;7846;48.830;9.116;2023-02-03T00:46:48;2.60;;;0.70;;
15488;SDS011;7846;48.830;9.116;2023-02-03T00:49:14;0.70;;;0.70;;
15488;SDS011;7846;48.830;9.116;2023-02-03T00:51:40;0.87;;;0.57;;
15488;SDS011;7846;48.830;9.116;2023-02-03T00:54:05;0.50;;;0.50;;
15488;SDS011;7846;48.830;9.116;2023-02-03T00:56:31;0.93;;;0.60;;
15488;SDS011;7846;48.830;9.116;2023-02-03T00:58:56;1.30;;;0.70;;
15488;SDS011;7846;48.830;9.116;2023-02-03T01:01:21;1.67;;;0.80;;
15488;SDS011;7846;48.830;9.116;2023-02-03T01:03:48;0.97;;;0.80;;
15488;SDS011;7846;48.830;9.116;2023-02-03T01:06:15;2.20;;;1.00;;
15488;SDS011;7846;48.830;9.116;2023-02-03T01:08:42;0.93;;;0.80;;
15488;SDS011;7846;48.830;9.116;2023-02-03T01:11:08;1.07;;;0.73;;
15488;SDS011;7846;48.830;9.116;2023-02-03T01:13:35;1.90;;;0.83;;
15488;SDS011;7846;48.830;9.116;2023-02-03T01:16:02;1.27;;;0.80;;
15488;SDS011;7846;48.830;9.116;2023-02-03T01:18:27;0.77;;;0.77;;
15488;SDS011;7846;48.830;9.116;2023-02-03T01:20:52;0.93;;;0.70;;
15488;SDS011;7846;48.830;9.116;2023-02-03T01:23:19;1.10;;;1.00;;
15488;SDS011;7846;48.830;9.116;2023-02-03T01:25:44;1.23;;;0.90;;
15488;SDS011;7846;48.830;9.116;2023-02-03T01:28:10;0.80;;;0.80;;
15488;SDS011;7846;48.830;9.116;2023-02-03T01:30:35;1.27;;;0.73;;
15488;SDS011;7846;48.830;9.116;2023-02-03T01:33:01;2.13;;;0.90;;
15488;SDS011;7846;48.830;9.116;2023-02-03T01:35:26;1.30;;;0.87;;
15488;SDS011;7846;48.830;9.116;2023-02-03T01:37:52;0.80;;;0.80;;
15488;SDS011;7846;48.830;9.116;2023-02-03T01:40:19;0.77;;;0.73;;
15488;SDS011;7846;48.830;9.116;2023-02-03T01:42:44;1.33;;;1.07;;
15488;SDS011;7846;48.830;9.116;2023-02-03T01:45:10;1.00;;;1.00;;
15488;SDS011;7846;48.830;9.116;2023-02-03T01:47:44;1.30;;;1.20;;
15488;SDS011;7846;48.830;9.116;2023-02-03T01:50:16;1.43;;;1.07;;
15488;SDS011;7846;48.830;9.116;2023-02-03T01:52:52;1.17;;;1.17;;
15488;SDS011;7846;48.830;9.116;2023-02-03T01:55:23;2.00;;;1.20;;
15488;SDS011;7846;48.830;9.116;2023-02-03T01:57:57;1.50;;;1.27;;
15488;SDS011;7846;48.830;9.116;2023-02-03T02:00:26;1.90;;;1.37;;
15488;SDS011;7846;48.830;9.116;2023-02-03T02:02:51;1.37;;;1.20;;
15488;SDS011;7846;48.830;9.116;2023-02-03T02:07:52;1.90;;;1.50;;
15488;SDS011;7846;48.830;9.116;2023-02-03T02:10:18;1.93;;;1.30;;
15488;SDS011;7846;48.830;9.116;2023-02-03T02:12:44;1.30;;;1.20;;
15488;SDS011;7846;48.830;9.116;2023-02-03T02:15:09;1.63;;;1.30;;
15488;SDS011;7846;48.830;9.116;2023-02-03T02:17:38;1.27;;;1.10;;
15488;SDS011;7846;48.830;9.116;2023-02-03T02:23:02;1.17;;;1.07;;
15488;SDS011;7846;48.830;9.116;2023-02-03T02:25:45;1.47;;;1.10;;
15488;SDS011;7846;48.830;9.116;2023-02-03T02:31:40;1.20;;;1.10;;
15488;SDS011;7846;48.830;9.116;2023-02-03T02:34:24;1.53;;;1.10;;
15488;SDS011;7846;48.830;9.116;2023-02-03T02:37:06;1.93;;;1.23;;
15488;SDS011;7846;48.830;9.116;2023-02-03T02:42:20;1.40;;;1.10;;
15488;SDS011;7846;48.830;9.116;2023-02-03T02:44:58;0.93;;;0.93;;
15488;SDS011;7846;48.830;9.116;2023-02-03T02:47:32;1.33;;;0.90;;
15488;SDS011;7846;48.830;9.116;2023-02-03T02:49:59;2.30;;;1.00;;
15488;SDS011;7846;48.830;9.116;2023-02-03T02:52:41;1.10;;;1.00;;
15488;SDS011;7846;48.830;9.116;2023-02-03T02:55:14;2.00;;;1.30;;
15488;SDS011;7846;48.830;9.116;2023-02-03T02:57:42;2.37;;;1.10;;
15488;SDS011;7846;48.830;9.116;2023-02-03T03:00:11;1.00;;;1.00;;
15488;SDS011;7846;48.830;9.116;2023-02-03T03:02:36;1.20;;;1.07;;
15488;SDS011;7846;48.830;9.116;2023-02-03T03:05:06;1.00;;;0.97;;
15488;SDS011;7846;48.830;9.116;2023-02-03T03:07:36;1.53;;;1.03;;
15488;SDS011;7846;48.830;9.116;2023-02-03T03:10:07;1.13;;;0.90;;
15488;SDS011;7846;48.830;9.116;2023-02-03T03:12:38;1.10;;;1.00;;
15488;SDS011;7846;48.830;9.116;2023-02-03T03:15:10;0.90;;;0.90;;
15488;SDS011;7846;48.830;9.116;2023-02-03T03:17:42;1.00;;;0.90;;
15488;SDS011;7846;48.830;9.116;2023-02-03T03:20:11;1.47;;;0.80;;
15488;SDS011;7846;48.830;9.116;2023-02-03T03:22:44;1.93;;;1.20;;
15488;SDS011;7846;48.830;9.116;2023-02-03T03:25:16;0.77;;;0.77;;
15488;SDS011;7846;48.830;9.116;2023-02-03T03:27:49;0.70;;;0.70;;
15488;SDS011;7846;48.830;9.116;2023-02-03T03:30:22;2.03;;;0.90;;
15488;SDS011;7846;48.830;9.116;2023-02-03T03:32:53;1.47;;;0.80;;
15488;SDS011;7846;48.830;9.116;2023-02-03T03:35:19;0.77;;;0.77;;
15488;SDS011;7846;48.830;9.116;2023-02-03T03:37:49;0.70;;;0.70;;
15488;SDS011;7846;48.830;9.116;2023-02-03T03:40:26;1.30;;;0.77;;
15488;SDS011;7846;48.830;9.116;2023-02-03T03:43:04;1.43;;;0.67;;
15488;SDS011;7846;48.830;9.116;2023-02-03T03:45:40;0.73;;;0.63;;
15488;SDS011;7846;48.830;9.116;2023-02-03T03:50:50;0.40;;;0.40;;
15488;SDS011;7846;48.830;9.116;2023-02-03T03:53:22;0.50;;;0.50;;
15488;SDS011;7846;48.830;9.116;2023-02-03T03:55:51;0.60;;;0.60;;
15488;SDS011;7846;48.830;9.116;2023-02-03T03:58:22;1.07;;;0.57;;
15488;SDS011;7846;48.830;9.116;2023-02-03T04:00:55;0.57;;;0.57;;
15488;SDS011;7846;48.830;9.116;2023-02-03T04:03:26;1.03;;;0.60;;
15488;SDS011;7846;48.830;9.116;2023-02-03T04:05:55;1.30;;;0.60;;
15488;SDS011;7846;48.830;9.116;2023-02-03T04:08:21;0.50;;;0.50;;
15488;SDS011;7846;48.830;9.116;2023-02-03T04:10:47;0.53;;;0.53;;
15488;SDS011;7846;48.830;9.116;2023-02-03T04:13:13;0.40;;;0.40;;
15488;SDS011;7846;48.830;9.116;2023-02-03T04:15:39;0.50;;;0.50;;
15488;SDS011;7846;48.830;9.116;2023-02-03T04:18:05;1.07;;;0.70;;
15488;SDS011;7846;48.830;9.116;2023-02-03T04:20:31;1.13;;;0.60;;
15488;SDS011;7846;48.830;9.116;2023-02-03T04:22:57;0.50;;;0.50;;
15488;SDS011;7846;48.830;9.116;2023-02-03T04:25:24;0.60;;;0.60;;
15488;SDS011;7846;48.830;9.116;2023-02-03T04:27:50;0.67;;;0.40;;
15488;SDS011;7846;48.830;9.116;2023-02-03T04:30:15;1.37;;;0.40;;
15488;SDS011;7846;48.830;9.116;2023-02-03T04:32:42;0.60;;;0.60;;
15488;SDS011;7846;48.830;9.116;2023-02-03T04:35:08;0.80;;;0.60;;
15488;SDS011;7846;48.830;9.116;2023-02-03T04:37:34;1.60;;;0.60;;
15488;SDS011;7846;48.830;9.116;2023-02-03T04:40:00;0.57;;;0.50;;
15488;SDS011;7846;48.830;9.116;2023-02-03T04:42:26;0.60;;;0.60;;
15488;SDS011;7846;48.830;9.116;2023-02-03T04:44:51;1.03;;;0.50;;
15488;SDS011;7846;48.830;9.116;2023-02-03T04:47:17;0.50;;;0.50;;
15488;SDS011;7846;48.830;9.116;2023-02-03T04:49:43;0.97;;;0.50;;
15488;SDS011;7846;48.830;9.116;2023-02-03T04:52:09;0.47;;;0.47;;
15488;SDS011;7846;48.830;9.116;2023-02-03T04:54:35;0.50;;;0.50;;
15488;SDS011;7846;48.830;9.116;2023-02-03T04:57:00;0.60;;;0.60;;
15488;SDS011;7846;48.830;9.116;2023-02-03T04:59:26;0.70;;;0.60;;
15488;SDS011;7846;48.830;9.116;2023-02-03T05:01:51;0.40;;;0.40;;
15488;SDS011;7846;48.830;9.116;2023-02-03T05:04:17;0.50;;;0.50;;
15488;SDS011;7846;48.830;9.116;2023-02-03T05:06:43;0.83;;;0.50;;
15488;SDS011;7846;48.830;9.116;2023-02-03T05:09:10;0.47;;;0.27;;
15488;SDS011;7846;48.830;9.116;2023-02-03T05:11:36;0.43;;;0.43;;
15488;SDS011;7846;48.830;9.116;2023-02-03T05:14:01;1.33;;;0.93;;
15488;SDS011;7846;48.830;9.116;2023-02-03T05:16:27;0.50;;;0.50;;
15488;SDS011;7846;48.830;9.116;2023-02-03T05:18:52;0.87;;;0.70;;
15488;SDS011;7846;48.830;9.116;2023-02-03T05:21:18;0.70;;;0.40;;
15488;SDS011;7846;48.830;9.116;2023-02-03T05:23:45;2.17;;;0.60;;
15488;SDS011;7846;48.830;9.116;2023-02-03T05:26:10;1.10;;;0.70;;
15488;SDS011;7846;48.830;9.116;2023-02-03T05:28:36;2.10;;;0.80;;
15488;SDS011;7846;48.830;9.116;2023-02-03T05:31:01;1.10;;;1.00;;
15488;SDS011;7846;48.830;9.116;2023-02-03T05:33:27;2.77;;;1.10;;
15488;SDS011;7846;48.830;9.116;2023-02-03T05:35:53;1.90;;;1.17;;
15488;SDS011;7846;48.830;9.116;2023-02-03T05:38:20;1.70;;;1.10;;
15488;SDS011;7846;48.830;9.116;2023-02-03T05:40:47;2.10;;;1.00;;
15488;SDS011;7846;48.830;9.116;2023-02-03T05:43:31;3.47;;;1.20;;
15488;SDS011;7846;48.830;9.116;2023-02-03T05:46:00;3.73;;;1.03;;
15488;SDS011;7846;48.830;9.116;2023-02-03T05:48:26;0.80;;;0.80;;
15488;SDS011;7846;48.830;9.116;2023-02-03T05:50:53;1.07;;;0.80;;
15488;SDS011;7846;48.830;9.116;2023-02-03T05:53:18;5.03;;;1.33;;
15488;SDS011;7846;48.830;9.116;2023-02-03T05:55:43;2.17;;;0.90;;
15488;SDS011;7846;48.830;9.116;2023-02-03T05:58:09;2.27;;;1.00;;
15488;SDS011;7846;48.830;9.116;2023-02-03T06:00:35;0.80;;;0.80;;
15488;SDS011;7846;48.830;9.116;2023-02-03T06:03:01;1.10;;;0.90;;
15488;SDS011;7846;48.830;9.116;2023-02-03T06:05:27;0.97;;;0.87;;
15488;SDS011;7846;48.830;9.116;2023-02-03T06:07:54;1.90;;;0.93;;
15488;SDS011;7846;48.830;9.116;2023-02-03T06:10:19;0.80;;;0.80;;
15488;SDS011;7846;48.830;9.116;2023-02-03T06:12:45;1.00;;;0.90;;
15488;SDS011;7846;48.830;9.116;2023-02-03T06:15:11;2.03;;;0.90;;
15488;SDS011;7846;48.830;9.116;2023-02-03T06:17:36;1.00;;;0.90;;
15488;SDS011;7846;48.830;9.116;2023-02-03T06:20:03;1.00;;;0.90;;
15488;SDS011;7846;48.830;9.116;2023-02-03T06:22:30;1.50;;;1.00;;
15488;SDS011;7846;48.830;9.116;2023-02-03T06:24:57;0.97;;;0.90;;
15488;SDS011;7846;48.830;9.116;2023-02-03T06:27:23;2.57;;;0.90;;
15488;SDS011;7846;48.830;9.116;2023-02-03T06:29:49;2.47;;;1.10;;
15488;SDS011;7846;48.830;9.116;2023-02-03T06:32:14;0.93;;;0.93;;
15488;SDS011;7846;48.830;9.116;2023-02-03T06:34:41;0.83;;;0.83;;
15488;SDS011;7846;48.830;9.116;2023-02-03T06:37:06;0.90;;;0.90;;
15488;SDS011;7846;48.830;9.116;2023-02-03T06:39:32;0.80;;;0.80;;
15488;SDS011;7846;48.830;9.116;2023-02-03T06:41:57;1.97;;;0.97;;
15488;SDS011;7846;48.830;9.116;2023-02-03T06:44:22;1.07;;;0.97;;
15488;SDS011;7846;48.830;9.116;2023-02-03T06:46:50;1.33;;;1.13;;
15488;SDS011;7846;48.830;9.116;2023-02-03T06:49:16;1.57;;;0.93;;
15488;SDS011;7846;48.830;9.116;2023-02-03T06:51:41;1.30;;;0.90;;
15488;SDS011;7846;48.830;9.116;2023-02-03T06:54:09;1.30;;;1.07;;
15488;SDS011;7846;48.830;9.116;2023-02-03T06:56:35;2.13;;;0.90;;
15488;SDS011;7846;48.830;9.116;2023-02-03T06:59:00;0.80;;;0.80;;
15488;SDS011;7846;48.830;9.116;2023-02-03T07:01:26;2.57;;;1.00;;
15488;SDS011;7846;48.830;9.116;2023-02-03T07:03:53;2.00;;;1.10;;
15488;SDS011;7846;48.830;9.116;2023-02-03T07:06:21;2.27;;;0.90;;
15488;SDS011;7846;48.830;9.116;2023-02-03T07:08:47;0.90;;;0.90;;
15488;SDS011;7846;48.830;9.116;2023-02-03T07:11:12;1.17;;;0.90;;
15488;SDS011;7846;48.830;9.116;2023-02-03T07:13:38;2.17;;;1.00;;
15488;SDS011;7846;48.830;9.116;2023-02-03T07:16:03;1.17;;;1.03;;
15488;SDS011;7846;48.830;9.116;2023-02-03T07:18:29;2.27;;;0.90;;
15488;SDS011;7846;48.830;9.116;2023-02-03T07:20:55;1.43;;;0.90;;
15488;SDS011;7846;48.830;9.116;2023-02-03T07:23:21;1.37;;;1.03;;
15488;SDS011;7846;48.830;9.116;2023-02-03T07:25:47;1.97;;;1.30;;
15488;SDS011;7846;48.830;9.116;2023-02-03T07:28:13;2.03;;;1.10;;
15488;SDS011;7846;48.830;9.116;2023-02-03T07:30:39;1.53;;;0.90;;
15488;SDS011;7846;48.830;9.116;2023-02-03T07:33:05;0.80;;;0.80;;
15488;SDS011;7846;48.830;9.116;2023-02-03T07:35:32;1.30;;;0.93;;
15488;SDS011;7846;48.830;9.116;2023-02-03T07:37:57;1.30;;;0.80;;
15488;SDS011;7846;48.830;9.116;2023-02-03T07:40:23;1.83;;;0.97;;
15488;SDS011;7846;48.830;9.116;2023-02-03T07:42:48;2.43;;;1.10;;
15488;SDS011;7846;48.830;9.116;2023-02-03T07:45:14;1.00;;;0.80;;
15488;SDS011;7846;48.830;9.116;2023-02-03T07:47:41;1.40;;;0.80;;
15488;SDS011;7846;48.830;9.116;2023-02-03T07:50:07;1.23;;;0.90;;
15488;SDS011;7846;48.830;9.116;2023-02-03T07:52:34;1.10;;;1.00;;
15488;SDS011;7846;48.830;9.116;2023-02-03T07:54:59;1.10;;;1.00;;
15488;SDS011;7846;48.830;9.116;2023-02-03T07:57:25;1.07;;;0.90;;
15488;SDS011;7846;48.830;9.116;2023-02-03T07:59:50;1.00;;;1.00;;
15488;SDS011;7846;48.830;9.116;2023-02-03T08:02:16;0.83;;;0.83;;
15488;SDS011;7846;48.830;9.116;2023-02-03T08:04:42;1.10;;;1.00;;
15488;SDS011;7846;48.830;9.116;2023-02-03T08:07:07;2.20;;;1.10;;
15488;SDS011;7846;48.830;9.116;2023-02-03T08:09:33;1.80;;;1.20;;
15488;SDS011;7846;48.830;9.116;2023-02-03T08:11:58;4.60;;;1.20;;
15488;SDS011;7846;48.830;9.116;2023-02-03T08:14:24;1.07;;;0.90;;
15488;SDS011;7846;48.830;9.116;2023-02-03T08:16:50;0.83;;;0.80;;
15488;SDS011;7846;48.830;9.116;2023-02-03T08:19:15;1.63;;;1.10;;
15488;SDS011;7846;48.830;9.116;2023-02-03T08:21:42;1.60;;;1.20;;
15488;SDS011;7846;48.830;9.116;2023-02-03T08:24:08;1.53;;;1.43;;
15488;SDS011;7846;48.830;9.116;2023-02-03T08:26:34;2.17;;;1.30;;
15488;SDS011;7846;48.830;9.116;2023-02-03T08:29:00;1.70;;;0.97;;
15488;SDS011;7846;48.830;9.116;2023-02-03T08:31:26;1.07;;;0.97;;
15488;SDS011;7846;48.830;9.116;2023-02-03T08:33:51;2.50;;;1.20;;
15488;SDS011;7846;48.830;9.116;2023-02-03T08:36:16;1.30;;;1.20;;
15488;SDS011;7846;48.830;9.116;2023-02-03T08:38:42;1.17;;;1.00;;
15488;SDS011;7846;48.830;9.116;2023-02-03T08:41:09;2.63;;;1.47;;
15488;SDS011;7846;48.830;9.116;2023-02-03T08:43:39;4.47;;;1.23;;
15488;SDS011;7846;48.830;9.116;2023-02-03T08:46:04;3.00;;;1.40;;
15488;SDS011;7846;48.830;9.116;2023-02-03T08:48:31;3.70;;;1.47;;
15488;SDS011;7846;48.830;9.116;2023-02-03T08:50:56;2.30;;;1.37;;
15488;SDS011;7846;48.830;9.116;2023-02-03T08:53:23;3.30;;;3.00;;
15488;SDS011;7846;48.830;9.116;2023-02-03T08:55:48;6.00;;;3.77;;
15488;SDS011;7846;48.830;9.116;2023-02-03T08:58:14;3.40;;;2.07;;
15488;SDS011;7846;48.830;9.116;2023-02-03T09:00:40;4.63;;;4.00;;
15488;SDS011;7846;48.830;9.116;2023-02-03T09:03:06;2.20;;;2.00;;
15488;SDS011;7846;48.830;9.116;2023-02-03T09:05:31;1.43;;;1.17;;
15488;SDS011;7846;48.830;9.116;2023-02-03T09:07:58;1.57;;;1.40;;
15488;SDS011;7846;48.830;9.116;2023-02-03T09:10:23;2.57;;;1.17;;
15488;SDS011;7846;48.830;9.116;2023-02-03T09:12:49;1.83;;;1.33;;
15488;SDS011;7846;48.830;9.116;2023-02-03T09:15:14;3.90;;;1.27;;
15488;SDS011;7846;48.830;9.116;2023-02-03T09:17:39;2.43;;;1.27;;
15488;SDS011;7846;48.830;9.116;2023-02-03T09:20:05;1.97;;;1.10;;
15488;SDS011;7846;48.830;9.116;2023-02-03T09:22:31;1.93;;;1.30;;
15488;SDS011;7846;48.830;9.116;2023-02-03T09:24:57;3.13;;;1.10;;
15488;SDS011;7846;48.830;9.116;2023-02-03T09:27:23;1.37;;;1.07;;
15488;SDS011;7846;48.830;9.116;2023-02-03T09:29:48;1.80;;;1.27;;
15488;SDS011;7846;48.830;9.116;2023-02-03T09:32:14;4.37;;;1.37;;
15488;SDS011;7846;48.830;9.116;2023-02-03T09:34:39;1.77;;;1.67;;
15488;SDS011;7846;48.830;9.116;2023-02-03T09:37:05;1.60;;;0.93;;
15488;SDS011;7846;48.830;9.116;2023-02-03T09:39:31;0.50;;;0.50;;
15488;SDS011;7846;48.830;9.116;2023-02-03T09:42:15;0.67;;;0.67;;
15488;SDS011;7846;48.830;9.116;2023-02-03T09:47:48;0.57;;;0.57;;
15488;SDS011;7846;48.830;9.116;2023-02-03T09:50:25;0.87;;;0.50;;
15488;SDS011;7846;48.830;9.116;2023-02-03T09:52:54;0.60;;;0.60;;
15488;SDS011;7846;48.830;9.116;2023-02-03T09:57:50;0.60;;;0.50;;
15488;SDS011;7846;48.830;9.116;2023-02-03T10:00:22;1.13;;;0.67;;
15488;SDS011;7846;48.830;9.116;2023-02-03T10:02:56;1.17;;;0.60;;
15488;SDS011;7846;48.830;9.116;2023-02-03T10:11:09;1.67;;;0.57;;
15488;SDS011;7846;48.830;9.116;2023-02-03T10:13:47;0.77;;;0.60;;
15488;SDS011;7846;48.830;9.116;2023-02-03T10:16:34;0.37;;;0.37;;
15488;SDS011;7846;48.830;9.116;2023-02-03T10:19:26;1.07;;;0.97;;
15488;SDS011;7846;48.830;9.116;2023-02-03T10:22:01;2.17;;;0.80;;
15488;SDS011;7846;48.830;9.116;2023-02-03T10:27:25;1.03;;;0.50;;
15488;SDS011;7846;48.830;9.116;2023-02-03T10:32:42;1.07;;;0.67;;
15488;SDS011;7846;48.830;9.116;2023-02-03T10:35:10;0.70;;;0.50;;
15488;SDS011;7846;48.830;9.116;2023-02-03T10:37:40;0.50;;;0.40;;
15488;SDS011;7846;48.830;9.116;2023-02-03T10:40:12;0.30;;;0.30;;
15488;SDS011;7846;48.830;9.116;2023-02-03T10:42:40;0.53;;;0.50;;
15488;SDS011;7846;48.830;9.116;2023-02-03T10:45:34;2.00;;;0.60;;
15488;SDS011;7846;48.830;9.116;2023-02-03T10:48:03;1.80;;;1.67;;
15488;SDS011;7846;48.830;9.116;2023-02-03T10:50:31;2.77;;;2.37;;
15488;SDS011;7846;48.830;9.116;2023-02-03T10:55:44;1.07;;;0.50;;
15488;SDS011;7846;48.830;9.116;2023-02-03T10:58:16;0.77;;;0.77;;
15488;SDS011;7846;48.830;9.116;2023-02-03T11:00:54;1.70;;;1.60;;
15488;SDS011;7846;48.830;9.116;2023-02-03T11:03:24;1.53;;;0.60;;
15488;SDS011;7846;48.830;9.116;2023-02-03T11:08:35;0.47;;;0.43;;
15488;SDS011;7846;48.830;9.116;2023-02-03T11:11:06;0.50;;;0.30;;
15488;SDS011;7846;48.830;9.116;2023-02-03T11:13:33;0.67;;;0.67;;
15488;SDS011;7846;48.830;9.116;2023-02-03T11:16:00;0.50;;;0.50;;
15488;SDS011;7846;48.830;9.116;2023-02-03T11:18:39;0.87;;;0.87;;
15488;SDS011;7846;48.830;9.116;2023-02-03T11:21:09;0.60;;;0.60;;
15488;SDS011;7846;48.830;9.116;2023-02-03T11:23:43;1.90;;;1.80;;
15488;SDS011;7846;48.830;9.116;2023-02-03T11:26:22;1.70;;;0.87;;
15488;SDS011;7846;48.830;9.116;2023-02-03T11:28:53;0.80;;;0.80;;
15488;SDS011;7846;48.830;9.116;2023-02-03T11:31:23;2.43;;;2.30;;
15488;SDS011;7846;48.830;9.116;2023-02-03T11:34:36;0.53;;;0.50;;
15488;SDS011;7846;48.830;9.116;2023-02-03T11:36:41;0.50;;;0.50;;
15488;SDS011;7846;48.830;9.116;2023-02-03T11:39:16;1.07;;;0.80;;
15488;SDS011;7846;48.830;9.116;2023-02-03T11:41:44;0.90;;;0.90;;
15488;SDS011;7846;48.830;9.116;2023-02-03T11:44:16;0.80;;;0.80;;
15488;SDS011;7846;48.830;9.116;2023-02-03T11:46:44;0.47;;;0.47;;
15488;SDS011;7846;48.830;9.116;2023-02-03T11:57:37;0.53;;;0.53;;
15488;SDS011;7846;48.830;9.116;2023-02-03T12:00:21;0.60;;;0.60;;
15488;SDS011;7846;48.830;9.116;2023-02-03T12:05:48;0.60;;;0.50;;
15488;SDS011;7846;48.830;9.116;2023-02-03T12:11:09;1.23;;;0.60;;
15488;SDS011;7846;48.830;9.116;2023-02-03T12:13:53;0.77;;;0.77;;
15488;SDS011;7846;48.830;9.116;2023-02-03T12:19:18;0.60;;;0.60;;
15488;SDS011;7846;48.830;9.116;2023-02-03T12:33:49;0.50;;;0.50;;
15488;SDS011;7846;48.830;9.116;2023-02-03T12:36:33;0.80;;;0.80;;
15488;SDS011;7846;48.830;9.116;2023-02-03T12:39:14;0.90;;;0.60;;
15488;SDS011;7846;48.830;9.116;2023-02-03T12:41:47;1.37;;;0.50;;
15488;SDS011;7846;48.830;9.116;2023-02-03T12:44:28;0.43;;;0.40;;
15488;SDS011;7846;48.830;9.116;2023-02-03T12:47:17;0.80;;;0.60;;
15488;SDS011;7846;48.830;9.116;2023-02-03T12:49:49;2.33;;;0.47;;
15488;SDS011;7846;48.830;9.116;2023-02-03T12:52:29;0.30;;;0.30;;
15488;SDS011;7846;48.830;9.116;2023-02-03T12:58:24;0.50;;;0.50;;
15488;SDS011;7846;48.830;9.116;2023-02-03T13:00:58;0.50;;;0.50;;
15488;SDS011;7846;48.830;9.116;2023-02-03T13:09:21;0.50;;;0.50;;
15488;SDS011;7846;48.830;9.116;2023-02-03T13:11:57;0.73;;;0.60;;
15488;SDS011;7846;48.830;9.116;2023-02-03T13:14:31;0.60;;;0.60;;
15488;SDS011;7846;48.830;9.116;2023-02-03T13:17:46;0.50;;;0.50;;
15488;SDS011;7846;48.830;9.116;2023-02-03T13:19:59;0.63;;;0.63;;
15488;SDS011;7846;48.830;9.116;2023-02-03T13:22:29;0.40;;;0.40;;
15488;SDS011;7846;48.830;9.116;2023-02-03T13:25:00;1.00;;;0.60;;
15488;SDS011;7846;48.830;9.116;2023-02-03T13:27:38;0.83;;;0.70;;
15488;SDS011;7846;48.830;9.116;2023-02-03T13:30:16;0.40;;;0.40;;
15488;SDS011;7846;48.830;9.116;2023-02-03T13:38:57;0.40;;;0.40;;
15488;SDS011;7846;48.830;9.116;2023-02-03T13:41:29;0.50;;;0.50;;
15488;SDS011;7846;48.830;9.116;2023-02-03T13:44:07;0.93;;;0.60;;
15488;SDS011;7846;48.830;9.116;2023-02-03T13:46:37;0.57;;;0.40;;
15488;SDS011;7846;48.830;9.116;2023-02-03T13:49:04;0.50;;;0.47;;
15488;SDS011;7846;48.830;9.116;2023-02-03T13:51:36;0.50;;;0.50;;
15488;SDS011;7846;48.830;9.116;2023-02-03T13:54:16;0.60;;;0.60;;
15488;SDS011;7846;48.830;9.116;2023-02-03T13:57:35;0.97;;;0.70;;
15488;SDS011;7846;48.830;9.116;2023-02-03T13:59:46;1.03;;;0.50;;
15488;SDS011;7846;48.830;9.116;2023-02-03T14:20:53;0.50;;;0.50;;
15488;SDS011;7846;48.830;9.116;2023-02-03T14:23:24;0.63;;;0.43;;
15488;SDS011;7846;48.830;9.116;2023-02-03T14:25:54;1.13;;;0.50;;
15488;SDS011;7846;48.830;9.116;2023-02-03T14:28:35;0.60;;;0.30;;
15488;SDS011;7846;48.830;9.116;2023-02-03T14:36:30;1.23;;;0.57;;
15488;SDS011;7846;48.830;9.116;2023-02-03T14:41:46;1.07;;;0.40;;
15488;SDS011;7846;48.830;9.116;2023-02-03T14:58:54;1.77;;;0.40;;
15488;SDS011;7846;48.830;9.116;2023-02-03T15:01:02;0.30;;;0.30;;
15488;SDS011;7846;48.830;9.116;2023-02-03T15:03:28;0.50;;;0.50;;
15488;SDS011;7846;48.830;9.116;2023-02-03T15:06:00;0.33;;;0.33;;
15488;SDS011;7846;48.830;9.116;2023-02-03T15:08:31;2.33;;;0.40;;
15488;SDS011;7846;48.830;9.116;2023-02-03T15:10:57;1.40;;;0.40;;
15488;SDS011;7846;48.830;9.116;2023-02-03T15:13:38;0.33;;;0.33;;
15488;SDS011;7846;48.830;9.116;2023-02-03T15:16:05;0.73;;;0.33;;
15488;SDS011;7846;48.830;9.116;2023-02-03T15:18:38;0.33;;;0.33;;
15488;SDS011;7846;48.830;9.116;2023-02-03T15:21:05;0.30;;;0.30;;
15488;SDS011;7846;48.830;9.116;2023-02-03T15:23:41;0.30;;;0.30;;
15488;SDS011;7846;48.830;9.116;2023-02-03T15:26:13;0.33;;;0.33;;
15488;SDS011;7846;48.830;9.116;2023-02-03T15:28:40;0.30;;;0.30;;
15488;SDS011;7846;48.830;9.116;2023-02-03T15:31:08;2.50;;;0.50;;
15488;SDS011;7846;48.830;9.116;2023-02-03T15:33:41;0.50;;;0.50;;
15488;SDS011;7846;48.830;9.116;2023-02-03T15:36:18;0.30;;;0.30;;
15488;SDS011;7846;48.830;9.116;2023-02-03T15:38:53;0.40;;;0.40;;
15488;SDS011;7846;48.830;9.116;2023-02-03T15:41:28;0.40;;;0.40;;
15488;SDS011;7846;48.830;9.116;2023-02-03T15:43:55;0.50;;;0.40;;
15488;SDS011;7846;48.830;9.116;2023-02-03T15:46:27;0.50;;;0.40;;
15488;SDS011;7846;48.830;9.116;2023-02-03T15:49:06;0.37;;;0.30;;
15488;SDS011;7846;48.830;9.116;2023-02-03T15:51:39;0.43;;;0.37;;
15488;SDS011;7846;48.830;9.116;2023-02-03T15:54:12;0.83;;;0.50;;
15488;SDS011;7846;48.830;9.116;2023-02-03T15:56:59;1.30;;;0.30;;
15488;SDS011;7846;48.830;9.116;2023-02-03T15:59:34;0.40;;;0.40;;
15488;SDS011;7846;48.830;9.116;2023-02-03T16:02:06;0.40;;;0.40;;
15488;SDS011;7846;48.830;9.116;2023-02-03T16:04:52;0.87;;;0.53;;
15488;SDS011;7846;48.830;9.116;2023-02-03T16:07:26;1.47;;;0.60;;
15488;SDS011;7846;48.830;9.116;2023-02-03T16:09:54;0.60;;;0.60;;
15488;SDS011;7846;48.830;9.116;2023-02-03T16:12:27;0.70;;;0.70;;
15488;SDS011;7846;48.830;9.116;2023-02-03T16:14:57;0.70;;;0.60;;
15488;SDS011;7846;48.830;9.116;2023-02-03T16:20:19;0.50;;;0.50;;
15488;SDS011;7846;48.830;9.116;2023-02-03T16:23:32;0.60;;;0.60;;
15488;SDS011;7846;48.830;9.116;2023-02-03T16:28:32;0.83;;;0.70;;
15488;SDS011;7846;48.830;9.116;2023-02-03T16:31:17;0.90;;;0.70;;
15488;SDS011;7846;48.830;9.116;2023-02-03T16:34:13;0.70;;;0.70;;
15488;SDS011;7846;48.830;9.116;2023-02-03T16:36:59;1.47;;;0.90;;
15488;SDS011;7846;48.830;9.116;2023-02-03T16:39:43;0.80;;;0.80;;
15488;SDS011;7846;48.830;9.116;2023-02-03T16:42:28;0.83;;;0.73;;
15488;SDS011;7846;48.830;9.116;2023-02-03T16:45:20;0.97;;;0.87;;
15488;SDS011;7846;48.830;9.116;2023-02-03T16:48:04;1.10;;;1.10;;
15488;SDS011;7846;48.830;9.116;2023-02-03T16:50:49;0.70;;;0.70;;
15488;SDS011;7846;48.830;9.116;2023-02-03T16:53:24;0.60;;;0.60;;
15488;SDS011;7846;48.830;9.116;2023-02-03T16:55:52;0.70;;;0.70;;
15488;SDS011;7846;48.830;9.116;2023-02-03T16:58:20;1.97;;;1.03;;
15488;SDS011;7846;48.830;9.116;2023-02-03T17:00:46;0.67;;;0.67;;
15488;SDS011;7846;48.830;9.116;2023-02-03T17:03:23;0.70;;;0.70;;
15488;SDS011;7846;48.830;9.116;2023-02-03T17:05:50;0.90;;;0.90;;
15488;SDS011;7846;48.830;9.116;2023-02-03T17:08:17;2.63;;;1.00;;
15488;SDS011;7846;48.830;9.116;2023-02-03T17:10:44;1.27;;;0.60;;
15488;SDS011;7846;48.830;9.116;2023-02-03T17:13:11;1.13;;;0.80;;
15488;SDS011;7846;48.830;9.116;2023-02-03T17:15:38;0.67;;;0.67;;
15488;SDS011;7846;48.830;9.116;2023-02-03T17:18:16;0.67;;;0.67;;
15488;SDS011;7846;48.830;9.116;2023-02-03T17:20:42;0.73;;;0.73;;
15488;SDS011;7846;48.830;9.116;2023-02-03T17:23:10;0.60;;;0.60;;